Time;durP1;ratioP1;P1;durP2;ratioP2;P2;SDS_P1;SDS_P2;PMS_P1;PMS_P2;Temp;Humidity;BMP_temperature;BMP_pressure;BME280_temperature;BME280_humidity;BME280_pressure;Samples;Min_cycle;Max_cycle;Signal;HPM_P1;HPM_P2
2024/03/21 00:02:22;;;;;;;39.22;14.90;;;;;;;;;;5072686;28;20020;-67
2024/03/21 00:05:09;;;;;;;44.22;14.15;;;;;;;;;;5071752;28;20025;-67
2024/03/21 00:07:54;;;;;;;40.33;11.85;;;;;;;;;;5074743;28;20078;-67
2024/03/21 00:10:40;;;;;;;36.60;11.88;;;;;;;;;;5075158;28;20017;-67
2024/03/21 00:13:25;;;;;;;39.92;12.52;;;;;;;;;;5075627;28;20016;-67
2024/03/21 00:16:14;;;;;;;38.15;11.77;;;;;;;;;;5075516;28;20107;-67
2024/03/21 00:18:59;;;;;;;41.72;12.55;;;;;;;;;;5074988;28;20021;-67
2024/03/21 00:21:50;;;;;;;47.22;14.52;;;;;;;;;;5075816;28;20048;-67
2024/03/21 00:24:38;;;;;;;46.83;12.63;;;;;;;;;;5075023;28;20032;-67
2024/03/21 00:27:25;;;;;;;37.72;12.27;;;;;;;;;;5075315;28;20024;-67
2024/03/21 00:30:11;;;;;;;34.63;10.93;;;;;;;;;;5075887;28;20020;-67
2024/03/21 00:32:56;;;;;;;39.22;12.05;;;;;;;;;;5060790;28;20074;-67
2024/03/21 00:35:42;;;;;;;37.50;9.98;;;;;;;;;;5074850;28;20025;-67
2024/03/21 00:38:27;;;;;;;30.63;9.65;;;;;;;;;;5073628;28;20166;-67
2024/03/21 00:41:13;;;;;;;43.53;11.57;;;;;;;;;;5074404;28;20727;-67
2024/03/21 00:43:59;;;;;;;32.42;9.38;;;;;;;;;;5077464;28;20036;-67
2024/03/21 00:46:44;;;;;;;36.92;9.85;;;;;;;;;;5087331;28;20470;-67
2024/03/21 00:49:30;;;;;;;39.10;10.88;;;;;;;;;;5089931;28;20025;-67
2024/03/21 00:52:16;;;;;;;33.92;9.10;;;;;;;;;;5093414;28;20016;-67
2024/03/21 00:55:01;;;;;;;44.92;11.23;;;;;;;;;;5094739;28;20051;-67
2024/03/21 00:57:47;;;;;;;38.40;10.73;;;;;;;;;;5094279;28;20020;-67
2024/03/21 01:00:32;;;;;;;35.38;10.13;;;;;;;;;;5094937;28;20027;-67
2024/03/21 01:03:18;;;;;;;28.98;8.85;;;;;;;;;;5096250;28;20496;-67
2024/03/21 01:06:04;;;;;;;39.47;10.02;;;;;;;;;;5094819;28;20111;-67
2024/03/21 01:08:49;;;;;;;36.75;10.80;;;;;;;;;;5086569;28;20033;-67
2024/03/21 01:11:35;;;;;;;38.75;9.60;;;;;;;;;;5074158;28;20052;-67
2024/03/21 01:14:21;;;;;;;39.80;8.40;;;;;;;;;;5073385;28;20039;-67
2024/03/21 01:17:06;;;;;;;36.80;9.43;;;;;;;;;;5073489;28;20028;-67
2024/03/21 01:19:52;;;;;;;40.67;9.75;;;;;;;;;;5068032;28;20020;-67
2024/03/21 01:22:37;;;;;;;41.47;10.05;;;;;;;;;;5081121;28;20537;-67
2024/03/21 01:25:23;;;;;;;31.02;9.02;;;;;;;;;;5060538;28;20029;-67
2024/03/21 01:28:09;;;;;;;36.72;8.05;;;;;;;;;;5074163;28;20025;-67
2024/03/21 01:30:54;;;;;;;34.60;8.68;;;;;;;;;;5073906;28;20500;-67
2024/03/21 01:33:43;;;;;;;27.33;7.15;;;;;;;;;;5071650;28;20044;-67
2024/03/21 01:36:30;;;;;;;20.85;6.78;;;;;;;;;;5073196;28;20024;-67
2024/03/21 01:39:16;;;;;;;21.02;6.88;;;;;;;;;;5074009;28;20028;-67
2024/03/21 01:42:02;;;;;;;27.60;7.63;;;;;;;;;;5072461;28;20056;-67
2024/03/21 01:45:02;;;;;;;27.95;6.10;;;;;;;;;;5073309;28;20048;-67
2024/03/21 01:47:48;;;;;;;22.70;7.57;;;;;;;;;;5072524;28;20020;-67
2024/03/21 01:50:35;;;;;;;20.60;6.90;;;;;;;;;;5061302;28;20051;-66
2024/03/21 01:53:21;;;;;;;23.38;8.00;;;;;;;;;;5068697;28;20410;-67
2024/03/21 01:56:07;;;;;;;20.00;6.45;;;;;;;;;;5087320;28;20023;-67
2024/03/21 01:58:52;;;;;;;16.27;6.05;;;;;;;;;;5088529;28;20094;-67
2024/03/21 02:01:38;;;;;;;16.17;6.38;;;;;;;;;;5073786;28;20501;-67
2024/03/21 02:04:24;;;;;;;18.92;6.93;;;;;;;;;;5073258;28;20031;-67
2024/03/21 02:07:14;;;;;;;17.30;6.32;;;;;;;;;;5075847;28;20017;-67
2024/03/21 02:10:00;;;;;;;14.48;6.13;;;;;;;;;;5074440;28;20021;-67
2024/03/21 02:12:48;;;;;;;12.77;5.85;;;;;;;;;;5072374;28;20025;-67
2024/03/21 02:15:34;;;;;;;12.20;6.90;;;;;;;;;;5053181;28;20395;-66
2024/03/21 02:18:20;;;;;;;17.20;6.53;;;;;;;;;;5059472;28;20085;-67
2024/03/21 02:22:35;;;;;;;9.65;5.22;;;;;;;;;;5053350;28;20036;-67
2024/03/21 02:24:11;;;;;;;13.18;5.63;;;;;;;;;;5069168;28;20028;-67
2024/03/21 02:26:57;;;;;;;13.13;4.97;;;;;;;;;;5072091;28;20055;-67
2024/03/21 02:29:42;;;;;;;11.77;5.20;;;;;;;;;;5071708;28;20055;-67
2024/03/21 02:32:28;;;;;;;12.02;4.93;;;;;;;;;;5072495;28;20083;-67
2024/03/21 02:35:14;;;;;;;9.95;4.95;;;;;;;;;;5072806;28;20028;-67
2024/03/21 02:37:59;;;;;;;10.18;5.22;;;;;;;;;;5071590;28;20040;-67
2024/03/21 02:40:46;;;;;;;12.00;4.68;;;;;;;;;;5070957;28;20470;-67
2024/03/21 02:43:32;;;;;;;13.35;6.10;;;;;;;;;;5071958;28;20036;-67
2024/03/21 02:46:17;;;;;;;16.52;6.65;;;;;;;;;;5053087;28;20032;-67
2024/03/21 02:49:03;;;;;;;15.60;6.38;;;;;;;;;;5057729;28;20095;-67
2024/03/21 02:51:48;;;;;;;18.13;6.82;;;;;;;;;;5068599;28;20032;-67
2024/03/21 02:54:35;;;;;;;23.10;8.35;;;;;;;;;;5069876;28;20409;-67
2024/03/21 02:57:20;;;;;;;20.98;8.10;;;;;;;;;;5071375;28;20405;-67
2024/03/21 03:00:06;;;;;;;22.95;6.97;;;;;;;;;;5071602;28;20024;-67
2024/03/21 03:02:52;;;;;;;17.05;7.13;;;;;;;;;;5051462;28;20056;-67
2024/03/21 03:05:42;;;;;;;13.05;6.22;;;;;;;;;;5051160;28;20025;-66
2024/03/21 03:08:28;;;;;;;11.60;4.47;;;;;;;;;;5056886;28;20095;-67
2024/03/21 03:11:14;;;;;;;12.77;4.75;;;;;;;;;;5071205;28;20062;-67
2024/03/21 03:13:59;;;;;;;10.27;5.60;;;;;;;;;;5071977;28;20440;-67
2024/03/21 03:16:45;;;;;;;10.40;4.80;;;;;;;;;;5071184;28;20524;-67
2024/03/21 03:19:31;;;;;;;9.40;3.80;;;;;;;;;;5069137;28;20040;-67
2024/03/21 03:22:16;;;;;;;9.30;4.07;;;;;;;;;;5067741;28;20021;-67
2024/03/21 03:25:02;;;;;;;8.25;3.88;;;;;;;;;;5057513;28;20020;-67
2024/03/21 03:27:49;;;;;;;6.10;4.13;;;;;;;;;;5073525;28;20025;-67
2024/03/21 03:30:35;;;;;;;9.02;3.67;;;;;;;;;;5071422;28;20020;-67
2024/03/21 03:36:26;;;;;;;11.57;5.10;;;;;;;;;;5067473;28;20107;-67
2024/03/21 03:39:13;;;;;;;10.57;5.53;;;;;;;;;;5070095;28;20375;-67
2024/03/21 03:41:59;;;;;;;16.23;6.45;;;;;;;;;;5074653;28;20154;-65
2024/03/21 03:44:44;;;;;;;12.15;6.82;;;;;;;;;;5071841;28;20024;-67
2024/03/21 03:47:30;;;;;;;15.02;6.20;;;;;;;;;;5074643;28;20440;-67
2024/03/21 03:50:18;;;;;;;11.77;5.80;;;;;;;;;;5082325;28;20024;-67
2024/03/21 03:53:03;;;;;;;15.38;7.25;;;;;;;;;;5076305;28;20111;-67
2024/03/21 03:55:49;;;;;;;18.10;6.40;;;;;;;;;;5075741;28;20020;-67
2024/03/21 03:58:34;;;;;;;21.13;7.43;;;;;;;;;;5077906;28;20028;-67
2024/03/21 04:01:20;;;;;;;20.83;7.22;;;;;;;;;;5056776;28;20029;-67
2024/03/21 04:04:06;;;;;;;17.63;6.85;;;;;;;;;;5055703;28;20036;-67
2024/03/21 04:06:53;;;;;;;18.63;6.57;;;;;;;;;;5056415;28;20122;-67
2024/03/21 04:09:39;;;;;;;15.82;6.05;;;;;;;;;;5066830;28;20490;-67
2024/03/21 04:12:24;;;;;;;18.83;6.32;;;;;;;;;;5075163;28;20051;-67
2024/03/21 04:15:10;;;;;;;18.92;7.22;;;;;;;;;;5074536;28;20029;-67
2024/03/21 04:17:56;;;;;;;29.88;7.13;;;;;;;;;;5073542;28;20031;-67
2024/03/21 04:20:41;;;;;;;20.58;7.55;;;;;;;;;;5074416;28;20028;-67
2024/03/21 04:23:27;;;;;;;19.00;7.55;;;;;;;;;;5073574;28;20028;-67
2024/03/21 04:26:12;;;;;;;18.17;7.18;;;;;;;;;;5074978;28;20024;-67
2024/03/21 04:28:58;;;;;;;16.10;6.57;;;;;;;;;;5074086;28;20111;-67
2024/03/21 04:31:44;;;;;;;21.80;6.70;;;;;;;;;;5071546;28;20059;-67
2024/03/21 04:34:29;;;;;;;17.60;7.25;;;;;;;;;;5075272;28;20398;-67
2024/03/21 04:37:17;;;;;;;15.38;6.78;;;;;;;;;;5073205;28;20108;-66
2024/03/21 04:40:03;;;;;;;18.30;5.90;;;;;;;;;;5071589;28;20024;-67
2024/03/21 04:42:51;;;;;;;16.20;6.47;;;;;;;;;;5073633;28;20024;-67
2024/03/21 04:45:37;;;;;;;15.13;5.93;;;;;;;;;;5075362;28;20028;-67
2024/03/21 04:48:23;;;;;;;11.88;6.28;;;;;;;;;;5071414;28;20017;-67
2024/03/21 04:51:09;;;;;;;17.13;5.40;;;;;;;;;;5074840;28;20085;-66
2024/03/21 04:53:54;;;;;;;18.70;5.75;;;;;;;;;;5059508;28;20025;-67
2024/03/21 04:56:40;;;;;;;18.60;6.07;;;;;;;;;;5081325;28;20027;-67
2024/03/21 04:59:27;;;;;;;20.35;6.90;;;;;;;;;;5094213;28;20024;-67
2024/03/21 05:02:13;;;;;;;16.30;6.32;;;;;;;;;;5095276;28;20073;-67
2024/03/21 05:04:58;;;;;;;18.58;6.30;;;;;;;;;;5094359;28;20374;-67
2024/03/21 05:07:44;;;;;;;20.23;6.80;;;;;;;;;;5073482;28;20064;-67
2024/03/21 05:10:30;;;;;;;15.20;5.88;;;;;;;;;;5074605;28;20012;-67
2024/03/21 05:13:15;;;;;;;23.25;9.18;;;;;;;;;;5073130;28;20032;-67
2024/03/21 05:16:01;;;;;;;16.58;7.05;;;;;;;;;;5073087;28;20058;-67
2024/03/21 05:18:48;;;;;;;19.95;6.82;;;;;;;;;;5073625;28;20082;-67
2024/03/21 05:21:34;;;;;;;21.92;7.40;;;;;;;;;;5072929;28;20409;-67
2024/03/21 05:24:19;;;;;;;20.52;7.35;;;;;;;;;;5073225;28;20490;-67
2024/03/21 05:27:06;;;;;;;19.10;8.00;;;;;;;;;;5067701;28;20028;-67
2024/03/21 05:29:51;;;;;;;20.25;7.80;;;;;;;;;;5074079;28;20104;-67
2024/03/21 05:32:37;;;;;;;18.10;7.00;;;;;;;;;;5074297;28;20533;-66
2024/03/21 05:35:23;;;;;;;20.85;8.13;;;;;;;;;;5071862;28;20107;-67
2024/03/21 05:38:09;;;;;;;21.05;7.95;;;;;;;;;;5073352;28;20028;-67
2024/03/21 05:40:54;;;;;;;20.80;6.60;;;;;;;;;;5059707;28;20029;-67
2024/03/21 05:43:40;;;;;;;14.18;6.05;;;;;;;;;;5065622;28;20033;-67
2024/03/21 05:46:26;;;;;;;17.65;6.32;;;;;;;;;;5071530;28;20150;-67
2024/03/21 05:49:13;;;;;;;11.77;5.30;;;;;;;;;;5069521;28;20040;-67
2024/03/21 05:51:59;;;;;;;12.50;5.60;;;;;;;;;;5073666;28;20104;-67
2024/03/21 05:54:51;;;;;;;12.80;5.22;;;;;;;;;;5073429;28;20032;-66
2024/03/21 05:57:38;;;;;;;11.85;5.38;;;;;;;;;;5051795;28;20090;-67
2024/03/21 06:00:24;;;;;;;15.05;5.63;;;;;;;;;;5071356;28;20029;-67
2024/03/21 06:03:09;;;;;;;11.55;4.60;;;;;;;;;;5066333;28;20502;-66
2024/03/21 06:05:55;;;;;;;15.50;6.50;;;;;;;;;;5071719;28;20553;-66
2024/03/21 06:08:41;;;;;;;13.90;5.15;;;;;;;;;;5067137;28;20093;-67
2024/03/21 06:11:27;;;;;;;12.15;5.30;;;;;;;;;;5071510;28;20024;-66
2024/03/21 06:14:12;;;;;;;14.23;5.97;;;;;;;;;;5071799;28;20025;-67
2024/03/21 06:16:59;;;;;;;11.95;5.82;;;;;;;;;;5071443;28;20025;-66
2024/03/21 06:19:45;;;;;;;12.88;5.78;;;;;;;;;;5072112;28;20025;-67
2024/03/21 06:22:33;;;;;;;13.65;6.70;;;;;;;;;;5071219;28;20060;-67
2024/03/21 06:25:19;;;;;;;19.35;8.40;;;;;;;;;;5066170;28;20020;-67
2024/03/21 06:28:05;;;;;;;24.02;10.93;;;;;;;;;;5071608;28;20440;-66
2024/03/21 06:30:51;;;;;;;32.25;13.70;;;;;;;;;;5056654;28;20504;-67
2024/03/21 06:33:38;;;;;;;35.50;15.10;;;;;;;;;;5071067;28;20024;-67
2024/03/21 06:36:24;;;;;;;33.50;11.98;;;;;;;;;;5070683;28;20107;-67
2024/03/21 06:39:11;;;;;;;24.13;9.63;;;;;;;;;;5072679;28;20028;-67
2024/03/21 06:41:56;;;;;;;21.85;9.30;;;;;;;;;;5069000;28;20104;-66
2024/03/21 06:44:42;;;;;;;30.02;10.02;;;;;;;;;;5070150;28;20033;-67
2024/03/21 06:47:27;;;;;;;39.45;14.60;;;;;;;;;;5070997;28;20020;-67
2024/03/21 06:50:17;;;;;;;42.97;15.23;;;;;;;;;;5052411;28;20100;-66
2024/03/21 06:53:03;;;;;;;43.65;16.55;;;;;;;;;;5051864;28;20031;-66
2024/03/21 06:55:52;;;;;;;45.58;17.02;;;;;;;;;;5076075;28;20024;-67
2024/03/21 06:58:38;;;;;;;52.92;18.65;;;;;;;;;;5071251;28;20078;-67
2024/03/21 07:01:24;;;;;;;57.63;20.25;;;;;;;;;;5060724;28;20036;-67
2024/03/21 07:04:09;;;;;;;63.15;21.17;;;;;;;;;;5073053;28;20074;-67
2024/03/21 07:06:55;;;;;;;56.63;20.73;;;;;;;;;;5079015;28;20401;-67
2024/03/21 07:09:42;;;;;;;52.92;17.85;;;;;;;;;;5092347;28;20020;-66
2024/03/21 07:12:27;;;;;;;58.13;17.95;;;;;;;;;;5078628;28;20028;-66
2024/03/21 07:15:15;;;;;;;48.13;17.35;;;;;;;;;;5071628;28;20037;-66
2024/03/21 07:18:00;;;;;;;51.42;16.15;;;;;;;;;;5053961;28;20498;-66
2024/03/21 07:20:56;;;;;;;46.55;17.67;;;;;;;;;;5068442;28;20028;-66
2024/03/21 07:23:41;;;;;;;42.65;15.70;;;;;;;;;;5072581;28;20410;-66
2024/03/21 07:26:29;;;;;;;41.03;16.40;;;;;;;;;;5067104;28;20053;-66
2024/03/21 07:29:14;;;;;;;48.88;15.27;;;;;;;;;;5071710;28;20033;-66
2024/03/21 07:32:04;;;;;;;47.95;17.05;;;;;;;;;;5071533;28;20025;-66
2024/03/21 07:34:50;;;;;;;42.75;15.73;;;;;;;;;;5056172;28;20486;-66
2024/03/21 07:37:36;;;;;;;46.40;15.85;;;;;;;;;;5071161;28;20479;-66
2024/03/21 07:40:21;;;;;;;52.28;17.73;;;;;;;;;;5072344;28;20116;-65
2024/03/21 07:43:07;;;;;;;40.58;16.17;;;;;;;;;;5072253;28;20040;-66
2024/03/21 07:45:53;;;;;;;45.72;16.13;;;;;;;;;;5071747;28;20032;-64
2024/03/21 07:48:38;;;;;;;48.40;17.08;;;;;;;;;;5072177;28;20028;-65
2024/03/21 07:51:24;;;;;;;50.58;15.57;;;;;;;;;;5071984;28;20024;-66
2024/03/21 07:54:10;;;;;;;47.97;15.80;;;;;;;;;;5072681;28;20087;-66
2024/03/21 07:56:59;;;;;;;41.92;14.98;;;;;;;;;;5071824;28;20024;-66
2024/03/21 07:59:45;;;;;;;38.45;15.60;;;;;;;;;;5072126;28;20397;-67
2024/03/21 08:02:31;;;;;;;36.97;14.70;;;;;;;;;;5071822;28;20390;-67
2024/03/21 08:05:16;;;;;;;34.97;12.73;;;;;;;;;;5071749;28;20024;-66
2024/03/21 08:08:02;;;;;;;35.60;11.88;;;;;;;;;;5071533;28;20028;-66
2024/03/21 08:10:48;;;;;;;34.58;12.05;;;;;;;;;;5071468;28;20027;-66
2024/03/21 08:13:33;;;;;;;31.58;12.68;;;;;;;;;;5071552;28;20048;-66
2024/03/21 08:16:19;;;;;;;35.92;13.25;;;;;;;;;;5071595;28;20016;-65
2024/03/21 08:19:05;;;;;;;37.40;13.98;;;;;;;;;;5071469;28;20154;-66
2024/03/21 08:21:50;;;;;;;36.05;14.40;;;;;;;;;;5072339;28;20021;-67
2024/03/21 08:24:38;;;;;;;37.42;13.35;;;;;;;;;;5071035;28;20021;-67
2024/03/21 08:27:23;;;;;;;30.67;13.32;;;;;;;;;;5059395;28;20021;-67
2024/03/21 08:30:10;;;;;;;32.97;12.48;;;;;;;;;;5075536;28;20520;-66
2024/03/21 08:32:55;;;;;;;40.80;14.27;;;;;;;;;;5074101;28;20505;-66
2024/03/21 08:35:41;;;;;;;29.65;13.70;;;;;;;;;;5075339;28;20492;-67
2024/03/21 08:38:27;;;;;;;35.58;12.15;;;;;;;;;;5059500;28;20031;-67
2024/03/21 08:41:13;;;;;;;31.17;13.57;;;;;;;;;;5074764;28;20086;-66
2024/03/21 08:43:58;;;;;;;36.35;14.63;;;;;;;;;;5075497;28;20036;-67
2024/03/21 08:46:44;;;;;;;35.63;14.63;;;;;;;;;;5074263;28;20028;-66
2024/03/21 08:49:29;;;;;;;38.90;16.13;;;;;;;;;;5074925;28;20016;-66
2024/03/21 08:52:15;;;;;;;35.20;14.18;;;;;;;;;;5075121;28;20056;-66
2024/03/21 08:55:01;;;;;;;34.03;14.02;;;;;;;;;;5075487;28;20499;-66
2024/03/21 08:57:46;;;;;;;36.88;13.93;;;;;;;;;;5074730;28;20107;-66
2024/03/21 09:00:33;;;;;;;38.15;15.02;;;;;;;;;;5075106;28;20385;-66
2024/03/21 09:03:18;;;;;;;40.60;14.02;;;;;;;;;;5056135;28;20020;-66
2024/03/21 09:06:04;;;;;;;34.80;13.73;;;;;;;;;;5080989;28;20132;-66
2024/03/21 09:08:50;;;;;;;32.97;12.52;;;;;;;;;;5086583;28;20401;-66
2024/03/21 09:11:35;;;;;;;34.88;12.73;;;;;;;;;;5091626;28;20123;-66
2024/03/21 09:14:21;;;;;;;32.35;11.73;;;;;;;;;;5089128;28;20020;-66
2024/03/21 09:17:07;;;;;;;28.88;12.52;;;;;;;;;;5074041;28;20027;-66
2024/03/21 09:19:53;;;;;;;25.38;11.43;;;;;;;;;;5071880;28;20016;-66
2024/03/21 09:22:39;;;;;;;30.48;11.48;;;;;;;;;;5072850;28;20370;-66
2024/03/21 09:25:24;;;;;;;30.08;12.77;;;;;;;;;;5077088;28;20067;-66
2024/03/21 09:28:10;;;;;;;31.67;13.05;;;;;;;;;;5074379;28;20021;-66
2024/03/21 09:30:56;;;;;;;25.95;12.48;;;;;;;;;;5072637;28;20394;-66
2024/03/21 09:33:42;;;;;;;23.30;11.55;;;;;;;;;;5074350;28;20174;-66
2024/03/21 09:36:29;;;;;;;29.42;11.88;;;;;;;;;;5072969;28;20054;-66
2024/03/21 09:39:15;;;;;;;27.02;11.68;;;;;;;;;;5072972;28;20040;-66
2024/03/21 09:42:01;;;;;;;27.60;10.63;;;;;;;;;;5072841;28;20110;-66
2024/03/21 09:44:49;;;;;;;24.80;10.20;;;;;;;;;;5057215;28;20029;-66
2024/03/21 09:47:35;;;;;;;28.85;11.95;;;;;;;;;;5072051;28;20033;-66
2024/03/21 09:50:23;;;;;;;23.35;10.70;;;;;;;;;;5059110;28;20024;-66
2024/03/21 09:53:13;;;;;;;28.10;10.77;;;;;;;;;;5074646;28;20397;-66
2024/03/21 09:55:58;;;;;;;21.45;10.55;;;;;;;;;;5063465;28;20028;-66
2024/03/21 09:58:45;;;;;;;24.75;12.60;;;;;;;;;;5057267;28;20464;-66
2024/03/21 10:01:30;;;;;;;28.48;11.80;;;;;;;;;;5058021;28;20042;-66
2024/03/21 10:04:16;;;;;;;29.77;12.32;;;;;;;;;;5079575;28;20017;-66
2024/03/21 10:07:01;;;;;;;25.35;10.38;;;;;;;;;;5071627;28;20021;-66
2024/03/21 10:09:54;;;;;;;23.52;10.32;;;;;;;;;;5073390;28;20028;-66
2024/03/21 10:12:40;;;;;;;22.77;10.02;;;;;;;;;;5072047;28;20032;-66
2024/03/21 10:15:26;;;;;;;24.40;11.98;;;;;;;;;;5071855;28;20563;-66
2024/03/21 10:18:12;;;;;;;23.85;10.02;;;;;;;;;;5071563;28;20028;-66
2024/03/21 10:20:59;;;;;;;26.52;10.90;;;;;;;;;;5067549;28;20366;-67
2024/03/21 10:23:44;;;;;;;23.55;8.55;;;;;;;;;;5073103;28;20044;-66
2024/03/21 10:26:31;;;;;;;21.92;9.73;;;;;;;;;;5068651;28;20028;-66
2024/03/21 10:29:16;;;;;;;20.83;9.73;;;;;;;;;;5056237;28;20509;-67
2024/03/21 10:32:03;;;;;;;22.08;9.75;;;;;;;;;;5067555;28;20028;-66
2024/03/21 10:34:50;;;;;;;23.40;9.77;;;;;;;;;;5066471;28;20131;-64
2024/03/21 10:37:37;;;;;;;19.88;8.25;;;;;;;;;;5063349;28;20550;-66
2024/03/21 10:40:24;;;;;;;27.50;10.52;;;;;;;;;;5060959;28;20020;-65
2024/03/21 10:43:13;;;;;;;23.50;9.52;;;;;;;;;;5065352;28;20032;-65
2024/03/21 10:46:01;;;;;;;22.30;9.10;;;;;;;;;;5053224;28;20086;-65
2024/03/21 10:48:46;;;;;;;23.48;10.75;;;;;;;;;;5054909;28;20400;-65
2024/03/21 10:51:39;;;;;;;22.42;8.68;;;;;;;;;;5070573;28;20514;-66
2024/03/21 10:54:25;;;;;;;23.15;8.43;;;;;;;;;;5064319;28;20025;-65
2024/03/21 10:57:29;;;;;;;16.15;7.65;;;;;;;;;;5063943;28;20093;-63
2024/03/21 11:00:18;;;;;;;18.35;8.07;;;;;;;;;;5063007;28;20082;-66
2024/03/21 11:03:04;;;;;;;16.88;8.52;;;;;;;;;;5066201;28;20683;-65
2024/03/21 11:05:56;;;;;;;15.60;7.72;;;;;;;;;;5059564;28;20017;-64
2024/03/21 11:08:51;;;;;;;21.85;9.10;;;;;;;;;;5063193;28;20059;-64
2024/03/21 11:11:37;;;;;;;18.10;8.65;;;;;;;;;;5051215;28;20505;-65
2024/03/21 11:14:23;;;;;;;17.27;8.30;;;;;;;;;;5064285;28;20098;-65
2024/03/21 11:17:10;;;;;;;16.73;8.00;;;;;;;;;;5062360;28;20115;-65
2024/03/21 11:20:01;;;;;;;15.68;8.07;;;;;;;;;;5065889;28;20025;-65
2024/03/21 11:22:47;;;;;;;14.55;7.47;;;;;;;;;;5063048;28;20509;-65
2024/03/21 11:25:32;;;;;;;18.27;8.05;;;;;;;;;;5068490;28;20032;-65
2024/03/21 11:28:18;;;;;;;14.60;7.60;;;;;;;;;;5069536;28;20032;-66
2024/03/21 11:31:03;;;;;;;16.02;7.60;;;;;;;;;;5061789;28;20048;-66
2024/03/21 11:33:50;;;;;;;16.58;7.45;;;;;;;;;;5065280;28;20035;-65
2024/03/21 11:36:35;;;;;;;14.57;7.13;;;;;;;;;;5061553;28;20044;-66
2024/03/21 11:39:21;;;;;;;13.40;6.50;;;;;;;;;;5060996;28;20025;-66
2024/03/21 11:42:11;;;;;;;17.20;8.57;;;;;;;;;;5064248;28;20985;-66
2024/03/21 11:44:56;;;;;;;16.33;6.95;;;;;;;;;;5059856;28;20020;-66
2024/03/21 11:47:42;;;;;;;12.35;6.18;;;;;;;;;;5068029;28;20436;-66
2024/03/21 11:50:28;;;;;;;11.68;6.38;;;;;;;;;;5064611;28;20020;-65
2024/03/21 11:53:14;;;;;;;12.02;6.18;;;;;;;;;;5039985;28;20450;-66
2024/03/21 11:56:00;;;;;;;11.35;6.57;;;;;;;;;;5089536;28;20401;-66
2024/03/21 11:58:45;;;;;;;11.27;5.57;;;;;;;;;;5090974;28;20080;-66
2024/03/21 12:01:31;;;;;;;10.80;5.70;;;;;;;;;;5082662;28;20031;-66
2024/03/21 12:04:17;;;;;;;12.57;5.65;;;;;;;;;;5089137;28;20024;-66
2024/03/21 12:07:02;;;;;;;12.07;5.60;;;;;;;;;;5073759;28;20503;-66
2024/03/21 12:09:48;;;;;;;11.80;5.53;;;;;;;;;;5074730;28;20024;-66
2024/03/21 12:12:34;;;;;;;11.35;5.80;;;;;;;;;;5092552;28;20027;-66
2024/03/21 12:15:20;;;;;;;15.80;6.00;;;;;;;;;;5092820;28;20024;-66
2024/03/21 12:18:05;;;;;;;12.82;6.28;;;;;;;;;;5053618;28;20048;-66
2024/03/21 12:20:51;;;;;;;9.27;5.90;;;;;;;;;;5061244;28;20036;-66
2024/03/21 12:23:36;;;;;;;8.68;5.78;;;;;;;;;;5088554;28;20017;-66
2024/03/21 12:26:22;;;;;;;11.05;6.05;;;;;;;;;;5073735;28;20063;-66
2024/03/21 12:29:08;;;;;;;11.25;5.80;;;;;;;;;;5074008;28;20017;-66
2024/03/21 12:31:53;;;;;;;9.57;5.50;;;;;;;;;;5082788;28;20024;-66
2024/03/21 12:34:39;;;;;;;11.85;7.63;;;;;;;;;;5094625;28;20401;-66
2024/03/21 12:37:24;;;;;;;11.20;5.55;;;;;;;;;;5083788;28;20027;-66
2024/03/21 12:40:10;;;;;;;12.13;5.95;;;;;;;;;;5073698;28;20021;-66
2024/03/21 12:42:56;;;;;;;9.95;6.22;;;;;;;;;;5071610;28;20036;-66
2024/03/21 12:45:42;;;;;;;10.32;6.93;;;;;;;;;;5059737;28;20394;-66
2024/03/21 12:48:27;;;;;;;10.98;5.78;;;;;;;;;;5073282;28;20021;-66
2024/03/21 12:51:14;;;;;;;10.50;4.70;;;;;;;;;;5054222;28;20092;-66
2024/03/21 12:54:00;;;;;;;10.95;5.43;;;;;;;;;;5072782;28;20025;-66
2024/03/21 12:56:46;;;;;;;10.75;4.80;;;;;;;;;;5070922;28;20048;-66
2024/03/21 12:59:31;;;;;;;7.40;3.58;;;;;;;;;;5073875;28;20021;-66
2024/03/21 13:02:17;;;;;;;7.28;3.65;;;;;;;;;;5072608;28;20031;-66
2024/03/21 13:05:05;;;;;;;10.48;4.03;;;;;;;;;;5070571;28;20029;-66
2024/03/21 13:07:50;;;;;;;10.48;4.50;;;;;;;;;;5073064;28;20036;-66
2024/03/21 13:10:36;;;;;;;8.82;3.38;;;;;;;;;;5072013;28;20032;-66
2024/03/21 13:13:22;;;;;;;5.93;3.55;;;;;;;;;;5074146;28;20362;-66
2024/03/21 13:16:08;;;;;;;6.88;2.72;;;;;;;;;;5083702;28;20024;-66
2024/03/21 13:18:53;;;;;;;8.15;2.45;;;;;;;;;;5072881;28;20121;-66
2024/03/21 13:21:39;;;;;;;9.25;2.90;;;;;;;;;;5062740;28;20085;-66
2024/03/21 13:24:25;;;;;;;8.38;2.53;;;;;;;;;;5068410;28;20032;-66
2024/03/21 13:27:10;;;;;;;4.45;2.08;;;;;;;;;;5085226;28;20028;-66
2024/03/21 13:29:56;;;;;;;4.93;1.67;;;;;;;;;;5081574;28;20443;-65
2024/03/21 13:32:46;;;;;;;4.13;1.50;;;;;;;;;;5093368;28;20031;-66
2024/03/21 13:35:32;;;;;;;4.10;2.30;;;;;;;;;;5073388;28;20386;-66
2024/03/21 13:38:18;;;;;;;7.65;1.95;;;;;;;;;;5072600;28;20032;-66
2024/03/21 13:41:03;;;;;;;6.70;1.70;;;;;;;;;;5072553;28;20055;-65
2024/03/21 13:43:49;;;;;;;4.97;1.75;;;;;;;;;;5063314;28;20021;-66
2024/03/21 13:46:35;;;;;;;8.30;1.95;;;;;;;;;;5070966;28;20547;-66
2024/03/21 13:49:21;;;;;;;10.63;2.00;;;;;;;;;;5072446;28;20435;-66
2024/03/21 13:52:06;;;;;;;4.43;1.77;;;;;;;;;;5072723;28;20028;-65
2024/03/21 13:54:53;;;;;;;4.82;1.77;;;;;;;;;;5070392;28;20090;-66
2024/03/21 13:57:39;;;;;;;9.50;1.80;;;;;;;;;;5072951;28;20490;-66
2024/03/21 14:00:30;;;;;;;6.47;2.13;;;;;;;;;;5070946;28;20405;-66
2024/03/21 14:03:15;;;;;;;5.50;1.48;;;;;;;;;;5070966;28;20036;-65
2024/03/21 14:06:04;;;;;;;7.68;1.70;;;;;;;;;;5046638;28;20025;-66
2024/03/21 14:08:50;;;;;;;6.50;1.42;;;;;;;;;;5060013;28;20024;-66
2024/03/21 14:11:37;;;;;;;5.65;1.80;;;;;;;;;;5054648;28;20025;-66
2024/03/21 14:14:24;;;;;;;3.03;1.35;;;;;;;;;;5069158;28;20468;-66
2024/03/21 14:17:10;;;;;;;4.22;1.05;;;;;;;;;;5072280;28;20029;-66
2024/03/21 14:19:58;;;;;;;10.02;1.80;;;;;;;;;;5071673;28;20051;-66
2024/03/21 14:22:43;;;;;;;3.63;1.00;;;;;;;;;;5071138;28;20511;-65
2024/03/21 14:25:30;;;;;;;6.93;1.13;;;;;;;;;;5070098;28;20024;-66
2024/03/21 14:28:16;;;;;;;8.77;1.40;;;;;;;;;;5070046;28;20017;-66
2024/03/21 14:31:03;;;;;;;3.15;1.52;;;;;;;;;;5065389;28;20115;-66
2024/03/21 14:33:50;;;;;;;4.72;2.03;;;;;;;;;;5068569;28;20085;-66
2024/03/21 14:36:36;;;;;;;10.18;2.42;;;;;;;;;;5071977;28;20090;-66
2024/03/21 14:39:22;;;;;;;9.20;2.00;;;;;;;;;;5070647;28;20029;-66
2024/03/21 14:42:08;;;;;;;8.65;3.47;;;;;;;;;;5070704;28;20401;-63
2024/03/21 14:44:54;;;;;;;5.15;1.50;;;;;;;;;;5070468;28;20221;-66
2024/03/21 14:47:40;;;;;;;8.73;1.67;;;;;;;;;;5071922;28;20020;-66
2024/03/21 14:50:26;;;;;;;11.88;2.78;;;;;;;;;;5056564;28;20017;-66
2024/03/21 14:53:11;;;;;;;9.50;1.75;;;;;;;;;;5056718;28;20017;-66
2024/03/21 14:55:57;;;;;;;9.15;1.92;;;;;;;;;;5060910;28;20439;-66
2024/03/21 14:58:44;;;;;;;10.25;2.30;;;;;;;;;;5071278;28;20029;-65
2024/03/21 15:01:31;;;;;;;17.33;2.30;;;;;;;;;;5071264;28;20032;-66
2024/03/21 15:04:16;;;;;;;5.70;1.70;;;;;;;;;;5070560;28;20435;-66
2024/03/21 15:07:02;;;;;;;10.27;2.17;;;;;;;;;;5069386;28;20029;-65
2024/03/21 15:09:48;;;;;;;3.92;1.50;;;;;;;;;;5072378;28;20501;-66
2024/03/21 15:12:33;;;;;;;5.47;2.20;;;;;;;;;;5071082;28;20521;-65
2024/03/21 15:15:19;;;;;;;8.25;2.15;;;;;;;;;;5070771;28;20029;-66
2024/03/21 15:18:05;;;;;;;8.32;2.35;;;;;;;;;;5082235;28;20128;-65
2024/03/21 15:20:51;;;;;;;6.93;1.95;;;;;;;;;;5090899;28;20027;-66
2024/03/21 15:23:37;;;;;;;16.35;2.42;;;;;;;;;;5092362;28;20056;-66
2024/03/21 15:26:23;;;;;;;11.57;2.45;;;;;;;;;;5077675;28;20169;-66
2024/03/21 15:29:09;;;;;;;6.22;1.88;;;;;;;;;;5071070;28;20090;-66
2024/03/21 15:31:54;;;;;;;7.85;2.10;;;;;;;;;;5055853;28;20024;-67
2024/03/21 15:34:40;;;;;;;10.10;1.77;;;;;;;;;;5071069;28;20521;-66
2024/03/21 15:37:26;;;;;;;6.28;1.98;;;;;;;;;;5075357;28;20079;-65
2024/03/21 15:40:12;;;;;;;5.65;1.75;;;;;;;;;;5075389;28;20109;-65
2024/03/21 15:42:58;;;;;;;12.07;3.35;;;;;;;;;;5074960;28;20023;-66
2024/03/21 15:45:45;;;;;;;13.93;1.58;;;;;;;;;;5074416;28;20035;-66
2024/03/21 15:48:32;;;;;;;10.57;2.25;;;;;;;;;;5073861;28;20506;-65
2024/03/21 15:51:18;;;;;;;7.28;2.20;;;;;;;;;;5083119;28;20023;-66
2024/03/21 15:54:04;;;;;;;13.95;2.42;;;;;;;;;;5090793;28;20509;-65
2024/03/21 15:56:49;;;;;;;4.13;1.98;;;;;;;;;;5075510;28;20103;-65
2024/03/21 15:59:35;;;;;;;10.07;2.33;;;;;;;;;;5074019;28;20036;-65
2024/03/21 16:02:21;;;;;;;10.98;2.67;;;;;;;;;;5075642;28;20025;-65
2024/03/21 16:05:07;;;;;;;5.47;1.85;;;;;;;;;;5075041;28;20052;-65
2024/03/21 16:07:52;;;;;;;12.05;2.30;;;;;;;;;;5075221;28;20055;-65
2024/03/21 16:10:38;;;;;;;9.90;2.38;;;;;;;;;;5075152;28;20489;-66
2024/03/21 16:13:24;;;;;;;7.15;2.05;;;;;;;;;;5074943;28;20031;-66
2024/03/21 16:16:09;;;;;;;7.00;2.17;;;;;;;;;;5073601;28;20032;-66
2024/03/21 16:18:55;;;;;;;7.47;2.13;;;;;;;;;;5073602;28;20060;-65
2024/03/21 16:21:40;;;;;;;7.97;2.05;;;;;;;;;;5067499;28;20029;-65
2024/03/21 16:24:27;;;;;;;8.38;2.35;;;;;;;;;;5075448;28;20020;-65